Main page
METAR-TAF:

METAR-TAF

Airports :

Ämari Air Base

Ämari, Estonia

latitude: 59-15-44N, longitude: 24-13-07E, elevation: 20 m

Current weather observation

The report was made 1 hour and 19 minutes ago, at 11:50 UTC
Wind 4 kt from the North/Northwest
Temperature 2°C
Humidity 80%
Pressure 1032 hPa
Visibility 10 km or more
Overcast at a height of 2100 ft

METAR: EEEI 211150Z 34004KT 9999 OVC021 02/M01 Q1032 R06/290095 NOSIG

Time: 15:09 (13:09 UTC)

Forecast

The report was made 1 hour and 39 minutes ago, at 11:30 UTC
Forecast valid from 21 at 12 UTC to 22 at 12 UTC
Wind 6 kt from the North
Visibility 10 km or more
Broken clouds at a height of 2000 ft
Probability 40% :
Temporary
from 21 at 12 UTC to 21 at 15 UTC
Broken clouds at a height of 500 ft
Temporary
from 21 at 23 UTC to 22 at 09 UTC
Broken clouds at a height of 1200 ft

TAF: EEEI 211130Z 2112/2212 35006KT 9999 BKN020 PROB40 TEMPO 2112/2115 BKN005 TEMPO 2123/2209 BKN012

Weather observations and forecasts of more than 4000 airports (METAR and TAF reports).

The available stations are represented by yellow and red dots on the map.

Hover mouse over dot to see the name of the station.

Then click to see weather observations and forecasts.

To change the map : click on the green buttons with a black cross to zoom in, on the green button with a dash to zoom out, or on the green arrows for adjacent maps.


METAR-TAF: